EGLCLSGC

Guest
Details From EGLC - London City
To LSGC - Les Eplatures
Flight Number -
Tags Generated
Created
Modified
Stats Distance 374 nm / 693 km
Max Altitude 0 ft / 0 m
Waypoints 3
Social Downloads 0
Likes 0
Share VATSIM

Download

Looking for another format? Having issues loading an existing format? Contact us
Advertisement - Login to hide

Notes

Generated

Route

EGLC ABEAM LSGC

ID Type Via Altitude Latitude Longitude Leg Dist Tot Dist Heading (true) Name
O EGLC APT - 0 ft / 0 m 51.50558˚ 0.04414˚ - 0 nm - -
ABEAM FIX - 0 ft / 0 m 47.29333˚ 6.52167˚ 357 nm 357 nm 132° / 137° -
O LSGC APT - 0 ft / 0 m 47.08098˚ 6.78770˚ 16 nm 374 nm 139° / 140° Les Eplatures

Altitude Profile

Advertisement - Login to hide

Weather


0- 5 10 15 20 25 30 35+ Temperature / ° C

Clouds and Precipitation
Forecast for 2018-05-22 12:00 UTC. Updated 5 hours ago

Ground ~20,000 ft ~40,000 ft Winds

EGLC

Details ICAO EGLC (LCY)
Name London City
Region United Kingdom
Timezone Europe/London (UTC+1.0)
Stats Elevation 19 ft / 6 m (AMSL)
Location 51.505231° 0.055175°
Runways 1
Magnetic Variation 0.321° W

METAR

EGLC 221620Z AUTO 34012KT 310V020 9999 NCD 21/11 Q1017

Decode

TAF

Not found

Departure Runways

ID Width Length Bearing (true) Bearing (mag) Surface Threshold Offset Overrun Length
09 98 ft / 30 m 4,931 ft / 1,503 m 92.89° 93.21° Concrete 322 ft / 98 m 164 ft / 50 m
27 98 ft / 30 m 4,931 ft / 1,503 m 272.91° 273.23° Concrete 243 ft / 74 m 279 ft / 85 m

LSGC

Details ICAO LSGC
Name Les Eplatures
Region Switzerland
Timezone Europe/Zurich (UTC+2.0)
Stats Elevation 3,368 ft / 1,027 m (AMSL)
Location 47.084154° 6.793497°
Runways 1
Magnetic Variation 1.953° E

METAR

LSGC 221620Z AUTO VRB01KT 9999 BKN080 SCT100 SCT///CB 14/09 Q1015

Decode

TAF

Not found

Destination Runways

ID Width Length Bearing (true) Bearing (mag) Surface Threshold Offset Overrun Length
06 95 ft / 29 m 3,722 ft / 1,135 m 53.96° 52.01° Asphalt 230 ft / 70 m 0 ft / 0 m
24 95 ft / 29 m 3,722 ft / 1,135 m 233.97° 232.02° Asphalt 328 ft / 100 m 0 ft / 0 m

Approach Navaids

Runway Type Ident Frequency Range Bearing (true) Bearing (mag) Slope Elevation
24 Localiser ICF 108.15 MHz 18 nm / 33 km 233.97° 232.01° - 3,376 ft / 1,029 m (AMSL)
24 Glidescope ICF 108.15 MHz 10 nm / 19 km 233.97° 232.01° 3.50° 3,371 ft / 1,027 m (AMSL)